Time;durP1;ratioP1;P1;durP2;ratioP2;P2;SDS_P1;SDS_P2;PMS_P1;PMS_P2;Temp;Humidity;BMP_temperature;BMP_pressure;BME280_temperature;BME280_humidity;BME280_pressure;Samples;Min_cycle;Max_cycle;Signal;HPM_P1;HPM_P2
2021/03/06 00:02:25;;;;;;;1.98;0.77;;;5.80;90.60;;;;;;5056297;28;20386;-74
2021/03/06 00:04:51;;;;;;;0.75;0.40;;;5.70;92.00;;;;;;5056383;28;20033;-73
2021/03/06 00:07:16;;;;;;;0.70;0.40;;;5.50;88.20;;;;;;5056343;28;20033;-74
2021/03/06 00:09:42;;;;;;;3.97;0.50;;;5.40;89.80;;;;;;5056404;28;20056;-74
2021/03/06 00:12:08;;;;;;;0.52;0.20;;;5.40;89.30;;;;;;5056351;28;20025;-74
2021/03/06 00:14:35;;;;;;;0.40;0.20;;;5.30;89.30;;;;;;5056342;28;20048;-74
2021/03/06 00:17:01;;;;;;;0.40;0.20;;;5.20;88.40;;;;;;5055264;28;20055;-74
2021/03/06 00:19:27;;;;;;;0.40;0.20;;;5.20;86.10;;;;;;5055081;28;20132;-74
2021/03/06 00:21:53;;;;;;;0.30;0.20;;;5.30;85.00;;;;;;5056473;28;20060;-74
2021/03/06 00:24:19;;;;;;;0.40;0.20;;;5.20;89.50;;;;;;5056115;28;20437;-73
2021/03/06 00:26:45;;;;;;;0.40;0.20;;;5.20;90.50;;;;;;5056518;28;20113;-73
2021/03/06 00:29:11;;;;;;;0.35;0.20;;;5.20;88.70;;;;;;5056647;28;20029;-73
2021/03/06 00:31:38;;;;;;;0.63;0.40;;;5.20;88.90;;;;;;5059963;28;20049;-74
2021/03/06 00:34:04;;;;;;;20.98;6.00;;;5.20;88.50;;;;;;5060281;28;20025;-74
2021/03/06 00:36:31;;;;;;;32.38;9.20;;;5.00;90.30;;;;;;5060198;28;20021;-74
2021/03/06 00:38:57;;;;;;;3.28;1.40;;;4.90;90.40;;;;;;5059864;28;20071;-74
2021/03/06 00:41:22;;;;;;;2.20;0.25;;;4.90;91.00;;;;;;5059823;28;20033;-74
2021/03/06 00:43:49;;;;;;;1.02;0.38;;;4.90;90.20;;;;;;5059724;28;20029;-73
2021/03/06 00:46:15;;;;;;;1.15;0.38;;;5.00;90.40;;;;;;5060212;28;20449;-74
2021/03/06 00:48:41;;;;;;;1.15;0.40;;;5.00;89.80;;;;;;5059632;28;20061;-73
2021/03/06 00:51:07;;;;;;;8.63;3.47;;;4.90;90.10;;;;;;5059630;28;20032;-73
2021/03/06 00:53:34;;;;;;;7.57;2.22;;;4.80;90.80;;;;;;5059523;28;20183;-73
2021/03/06 00:56:00;;;;;;;2.88;1.08;;;4.70;90.40;;;;;;5059646;28;20051;-73
2021/03/06 00:58:26;;;;;;;3.80;1.52;;;4.60;90.20;;;;;;5059467;28;20063;-73
2021/03/06 01:00:52;;;;;;;4.10;1.40;;;4.60;90.90;;;;;;5059743;28;20036;-74
2021/03/06 01:03:19;;;;;;;1.13;0.40;;;4.50;91.80;;;;;;5059254;28;20429;-73
2021/03/06 01:05:45;;;;;;;0.38;0.30;;;4.50;90.80;;;;;;5059707;28;20033;-73
2021/03/06 01:08:10;;;;;;;0.43;0.30;;;4.40;90.40;;;;;;5059237;28;20079;-73
2021/03/06 01:10:40;;;;;;;0.30;0.20;;;4.40;90.50;;;;;;5059430;28;20029;-74
2021/03/06 01:13:07;;;;;;;1.05;0.40;;;4.30;91.20;;;;;;5059132;28;20052;-74
2021/03/06 01:15:33;;;;;;;1.42;0.50;;;4.30;92.40;;;;;;5059654;28;20356;-74
2021/03/06 01:17:59;;;;;;;1.23;0.30;;;4.30;93.00;;;;;;5059386;28;20025;-74
2021/03/06 01:20:26;;;;;;;1.38;0.28;;;4.30;92.80;;;;;;5058894;28;20460;-74
2021/03/06 01:22:51;;;;;;;0.55;0.40;;;4.20;92.50;;;;;;5059231;28;20071;-74
2021/03/06 01:25:17;;;;;;;0.20;0.20;;;4.20;92.30;;;;;;5058987;28;20367;-74
2021/03/06 01:27:43;;;;;;;0.55;0.35;;;4.20;90.90;;;;;;5058924;28;20028;-74
2021/03/06 01:30:09;;;;;;;0.98;0.30;;;4.20;90.80;;;;;;5059185;28;20026;-74
2021/03/06 01:32:35;;;;;;;1.42;0.40;;;4.20;90.90;;;;;;5057685;28;20071;-74
2021/03/06 01:35:02;;;;;;;0.68;0.30;;;4.00;91.10;;;;;;5059090;28;20025;-74
2021/03/06 01:37:27;;;;;;;1.23;0.40;;;4.00;91.70;;;;;;5058858;28;20099;-74
2021/03/06 01:39:53;;;;;;;0.57;0.30;;;3.90;92.40;;;;;;5058732;28;20033;-74
2021/03/06 01:42:20;;;;;;;0.50;0.40;;;4.00;93.00;;;;;;5058079;28;20024;-74
2021/03/06 01:44:46;;;;;;;0.30;0.30;;;4.00;92.40;;;;;;5057414;28;20082;-74
2021/03/06 01:47:12;;;;;;;0.63;0.50;;;4.00;92.30;;;;;;5058520;28;20341;-74
2021/03/06 01:49:38;;;;;;;0.63;0.30;;;4.00;91.90;;;;;;5058544;28;20476;-74
2021/03/06 01:52:05;;;;;;;1.08;0.60;;;3.90;91.30;;;;;;5057336;28;20025;-74
2021/03/06 01:54:31;;;;;;;1.85;0.50;;;3.90;91.60;;;;;;5058656;28;20032;-74
2021/03/06 01:56:57;;;;;;;0.90;0.55;;;3.90;91.40;;;;;;5058667;28;20100;-74
2021/03/06 01:59:23;;;;;;;1.17;0.60;;;4.00;91.60;;;;;;5058404;28;20539;-74
2021/03/06 02:01:49;;;;;;;2.92;0.98;;;3.90;90.30;;;;;;5058430;28;20039;-74
2021/03/06 02:04:15;;;;;;;1.17;0.77;;;3.80;90.40;;;;;;5058285;28;20324;-74
2021/03/06 02:06:40;;;;;;;1.83;0.60;;;3.70;90.00;;;;;;5058532;28;20087;-74
2021/03/06 02:09:07;;;;;;;0.75;0.50;;;3.60;90.60;;;;;;5058116;28;20060;-74
2021/03/06 02:11:41;;;;;;;1.15;0.40;;;3.60;89.70;;;;;;5058160;28;20363;-74
2021/03/06 02:14:30;;;;;;;2.30;0.90;;;3.60;89.90;;;;;;5057912;28;20440;-74
2021/03/06 02:17:30;;;;;;;1.20;0.60;;;3.70;88.80;;;;;;5057161;28;20047;-74
2021/03/06 02:20:20;;;;;;;1.15;0.70;;;3.70;88.50;;;;;;5057890;28;20091;-74
2021/03/06 02:23:01;;;;;;;1.50;0.70;;;3.60;87.90;;;;;;5057946;28;20029;-74
2021/03/06 02:25:41;;;;;;;1.88;0.68;;;3.50;87.90;;;;;;5058075;28;20075;-74
2021/03/06 02:28:27;;;;;;;1.10;0.80;;;3.40;88.50;;;;;;5056675;28;20036;-74
2021/03/06 02:30:55;;;;;;;1.10;0.80;;;3.40;88.00;;;;;;5058050;28;20348;-74
2021/03/06 02:33:28;;;;;;;0.93;0.52;;;3.40;87.40;;;;;;5057870;28;20024;-73
2021/03/06 02:35:57;;;;;;;1.10;0.70;;;3.50;87.50;;;;;;5057718;28;20028;-74
2021/03/06 02:38:28;;;;;;;1.15;0.70;;;3.40;87.70;;;;;;5057831;28;20363;-74
2021/03/06 02:40:56;;;;;;;1.05;0.70;;;3.40;87.80;;;;;;5057732;28;20079;-73
2021/03/06 02:43:25;;;;;;;1.27;0.90;;;3.30;87.70;;;;;;5057538;28;20329;-74
2021/03/06 02:45:53;;;;;;;1.55;0.85;;;3.40;86.90;;;;;;5057404;28;20056;-73
2021/03/06 02:48:19;;;;;;;0.85;0.63;;;3.40;87.30;;;;;;5057363;28;20044;-74
2021/03/06 02:50:45;;;;;;;1.15;0.75;;;3.40;87.10;;;;;;5057577;28;20017;-73
2021/03/06 02:53:12;;;;;;;1.10;0.60;;;3.50;87.90;;;;;;5057183;28;20025;-74
2021/03/06 02:55:38;;;;;;;0.90;0.65;;;3.50;87.70;;;;;;5057309;28;20535;-74
2021/03/06 02:58:23;;;;;;;1.40;0.80;;;3.50;88.10;;;;;;5057346;28;20029;-73
2021/03/06 03:01:01;;;;;;;1.20;0.80;;;3.50;87.90;;;;;;5057502;28;20021;-74
2021/03/06 03:03:29;;;;;;;1.38;1.00;;;3.40;88.80;;;;;;5057203;28;20100;-74
2021/03/06 03:06:01;;;;;;;1.10;0.80;;;3.50;88.60;;;;;;5057454;28;20033;-74
2021/03/06 03:08:37;;;;;;;1.23;0.77;;;3.50;87.50;;;;;;5056995;28;20057;-74
2021/03/06 03:11:09;;;;;;;1.00;0.77;;;3.40;87.50;;;;;;5057319;28;20055;-73
2021/03/06 03:13:56;;;;;;;1.73;1.00;;;3.50;87.40;;;;;;5056895;28;20104;-73
2021/03/06 03:16:29;;;;;;;1.35;0.90;;;3.50;86.80;;;;;;5057440;28;20032;-74
2021/03/06 03:18:58;;;;;;;1.40;1.00;;;3.50;86.20;;;;;;5056936;28;20052;-74
2021/03/06 03:21:27;;;;;;;4.47;0.95;;;3.50;86.40;;;;;;5057204;28;20035;-74
2021/03/06 03:24:12;;;;;;;1.60;0.93;;;3.40;86.90;;;;;;5057029;28;20061;-73
2021/03/06 03:26:39;;;;;;;1.77;1.10;;;3.40;87.10;;;;;;5056848;28;20028;-73
2021/03/06 03:29:07;;;;;;;2.03;1.00;;;3.40;87.10;;;;;;5055605;28;20036;-73
2021/03/06 03:31:35;;;;;;;1.20;0.80;;;3.30;87.80;;;;;;5056665;28;20059;-73
2021/03/06 03:34:03;;;;;;;3.92;1.00;;;3.20;88.30;;;;;;5056868;28;20021;-73
2021/03/06 03:36:30;;;;;;;1.83;0.95;;;3.20;87.20;;;;;;5056983;28;20040;-73
2021/03/06 03:38:56;;;;;;;2.05;1.15;;;3.20;87.90;;;;;;5055585;28;20064;-73
2021/03/06 03:41:22;;;;;;;1.75;1.00;;;3.20;88.00;;;;;;5056614;28;20032;-74
2021/03/06 03:43:48;;;;;;;1.70;1.10;;;3.20;87.30;;;;;;5056502;28;20025;-74
2021/03/06 03:46:14;;;;;;;1.27;0.90;;;3.20;88.40;;;;;;5057045;28;20039;-74
2021/03/06 03:48:43;;;;;;;1.48;0.90;;;3.20;87.80;;;;;;5056426;28;20029;-73
2021/03/06 03:51:10;;;;;;;2.25;1.30;;;3.20;88.20;;;;;;5056808;28;20025;-74
2021/03/06 03:53:37;;;;;;;1.40;0.90;;;3.20;88.10;;;;;;5056464;28;20029;-74
2021/03/06 03:56:03;;;;;;;1.35;0.98;;;3.10;87.60;;;;;;5056743;28;20029;-74
2021/03/06 03:58:29;;;;;;;1.33;1.00;;;3.10;88.50;;;;;;5056423;28;20032;-73
2021/03/06 04:01:02;;;;;;;2.00;1.02;;;3.10;88.30;;;;;;5056735;28;20111;-74
2021/03/06 04:03:28;;;;;;;1.98;1.27;;;3.10;88.50;;;;;;5056352;28;20021;-73
2021/03/06 04:05:56;;;;;;;1.52;1.08;;;3.00;88.90;;;;;;5059921;28;20052;-73
2021/03/06 04:08:22;;;;;;;2.00;1.45;;;3.00;88.60;;;;;;5060612;28;20060;-73
2021/03/06 04:10:47;;;;;;;2.38;1.40;;;3.00;88.00;;;;;;5060416;28;20036;-73
2021/03/06 04:13:13;;;;;;;3.38;1.40;;;3.00;86.70;;;;;;5060311;28;20032;-73
2021/03/06 04:15:39;;;;;;;2.97;1.50;;;3.00;86.10;;;;;;5060848;28;20385;-74
2021/03/06 04:18:05;;;;;;;2.50;1.80;;;3.10;85.60;;;;;;5060392;28;20142;-73
2021/03/06 04:20:31;;;;;;;3.05;2.10;;;3.00;84.00;;;;;;5060057;28;20071;-74
2021/03/06 04:22:58;;;;;;;2.20;1.63;;;3.00;86.20;;;;;;5060377;28;20286;-74
2021/03/06 04:25:24;;;;;;;2.70;1.60;;;3.00;85.10;;;;;;5060167;28;20044;-73
2021/03/06 04:27:50;;;;;;;2.30;1.70;;;3.10;84.60;;;;;;5060243;28;20025;-74
2021/03/06 04:30:16;;;;;;;2.47;1.70;;;3.10;84.60;;;;;;5060043;28;20024;-74
2021/03/06 04:32:42;;;;;;;2.33;1.77;;;3.10;84.40;;;;;;5059923;28;20104;-73
2021/03/06 04:35:09;;;;;;;2.35;1.73;;;3.10;84.80;;;;;;5060260;28;20417;-73
2021/03/06 04:37:34;;;;;;;3.25;2.05;;;3.10;84.50;;;;;;5060087;28;20029;-73
2021/03/06 04:40:00;;;;;;;2.75;1.90;;;3.00;84.40;;;;;;5059795;28;20088;-73
2021/03/06 04:42:26;;;;;;;4.60;2.30;;;3.00;83.80;;;;;;5059737;28;20035;-73
2021/03/06 04:44:52;;;;;;;3.17;2.40;;;2.90;81.30;;;;;;5058724;28;20044;-74
2021/03/06 04:47:18;;;;;;;4.38;2.47;;;2.90;82.80;;;;;;5059948;28;20029;-74
2021/03/06 04:49:44;;;;;;;3.10;2.33;;;2.90;83.10;;;;;;5059685;28;20104;-74
2021/03/06 04:52:11;;;;;;;3.88;2.72;;;3.00;84.20;;;;;;5058556;28;20025;-73
2021/03/06 04:54:37;;;;;;;3.22;2.55;;;3.00;82.10;;;;;;5059829;28;20071;-74
2021/03/06 04:57:02;;;;;;;4.22;2.95;;;2.90;82.60;;;;;;5059552;28;20032;-74
2021/03/06 04:59:28;;;;;;;3.38;2.70;;;2.90;83.30;;;;;;5059616;28;20047;-73
2021/03/06 05:01:54;;;;;;;5.57;3.50;;;2.80;83.60;;;;;;5059428;28;20037;-73
2021/03/06 05:04:19;;;;;;;3.28;2.92;;;2.70;84.10;;;;;;5059539;28;20040;-74
2021/03/06 05:06:45;;;;;;;3.47;3.17;;;2.60;83.10;;;;;;5059652;28;20082;-74
2021/03/06 05:09:11;;;;;;;5.13;3.03;;;2.60;82.60;;;;;;5059527;28;20321;-73
2021/03/06 05:11:37;;;;;;;3.92;3.15;;;2.60;83.70;;;;;;5059532;28;20060;-74
2021/03/06 05:14:03;;;;;;;5.70;3.55;;;2.50;82.80;;;;;;5059348;28;20025;-73
2021/03/06 05:16:29;;;;;;;4.60;4.10;;;2.50;83.20;;;;;;5058094;28;20478;-73
2021/03/06 05:18:54;;;;;;;5.47;3.92;;;2.50;84.20;;;;;;5058906;28;20025;-74
2021/03/06 05:21:20;;;;;;;4.75;3.75;;;2.40;83.10;;;;;;5059373;28;20033;-73
2021/03/06 05:23:47;;;;;;;5.30;4.18;;;2.40;83.50;;;;;;5059248;28;20087;-73
2021/03/06 05:26:12;;;;;;;4.45;3.92;;;2.40;82.20;;;;;;5059096;28;20021;-73
2021/03/06 05:28:38;;;;;;;5.35;4.28;;;2.40;81.60;;;;;;5057823;28;20044;-73
2021/03/06 05:31:04;;;;;;;4.75;4.05;;;2.30;83.00;;;;;;5058969;28;20021;-73
2021/03/06 05:33:29;;;;;;;7.03;4.60;;;2.20;82.30;;;;;;5058737;28;20029;-74
2021/03/06 05:35:55;;;;;;;7.40;4.88;;;2.10;82.90;;;;;;5058848;28;20021;-74
2021/03/06 05:38:21;;;;;;;6.38;4.95;;;2.10;82.20;;;;;;5059009;28;20029;-73
2021/03/06 05:40:47;;;;;;;6.25;4.60;;;2.00;82.30;;;;;;5059024;28;20017;-73
2021/03/06 05:43:14;;;;;;;5.90;4.80;;;1.90;82.70;;;;;;5058625;28;20025;-73
2021/03/06 05:45:44;;;;;;;6.07;4.50;;;2.00;83.50;;;;;;5058555;28;20111;-73
2021/03/06 05:48:10;;;;;;;5.63;4.57;;;2.00;83.30;;;;;;5058514;28;20040;-74
2021/03/06 05:50:36;;;;;;;6.93;5.13;;;2.10;82.40;;;;;;5057512;28;20113;-74
2021/03/06 05:53:09;;;;;;;6.90;4.53;;;2.10;82.70;;;;;;5058641;28;20100;-74
2021/03/06 05:55:36;;;;;;;7.55;5.32;;;2.00;82.50;;;;;;5058488;28;20025;-74
2021/03/06 05:58:02;;;;;;;6.05;4.50;;;2.10;82.20;;;;;;5058423;28;20035;-73
2021/03/06 06:00:28;;;;;;;6.38;5.07;;;2.10;82.00;;;;;;5057350;28;20029;-73
2021/03/06 06:02:55;;;;;;;6.03;5.03;;;2.10;83.50;;;;;;5058242;28;20029;-74
2021/03/06 06:05:22;;;;;;;5.72;4.65;;;2.10;82.80;;;;;;5058255;28;20412;-73
2021/03/06 06:07:50;;;;;;;9.23;5.28;;;2.20;81.90;;;;;;5058082;28;20033;-73
2021/03/06 06:10:16;;;;;;;6.40;5.13;;;2.20;82.00;;;;;;5058390;28;20119;-73
2021/03/06 06:12:43;;;;;;;6.10;4.82;;;2.20;81.70;;;;;;5056993;28;20413;-73
2021/03/06 06:15:11;;;;;;;5.45;4.40;;;2.10;81.60;;;;;;5058275;28;20029;-73
2021/03/06 06:17:37;;;;;;;6.55;5.18;;;2.10;81.70;;;;;;5058128;28;20040;-74
2021/03/06 06:20:03;;;;;;;7.05;5.38;;;2.10;82.20;;;;;;5057792;28;20056;-74
2021/03/06 06:22:29;;;;;;;5.32;4.43;;;2.20;82.80;;;;;;5057877;28;20028;-73
2021/03/06 06:24:55;;;;;;;8.23;5.75;;;2.10;81.10;;;;;;5057916;28;20067;-73
2021/03/06 06:27:32;;;;;;;7.80;6.55;;;2.10;84.10;;;;;;5057716;28;20320;-74
2021/03/06 06:30:00;;;;;;;7.07;5.20;;;2.10;81.60;;;;;;5057868;28;20302;-73
2021/03/06 06:32:27;;;;;;;6.45;5.00;;;2.10;81.70;;;;;;5057625;28;20021;-73
2021/03/06 06:35:03;;;;;;;7.25;5.28;;;2.10;82.00;;;;;;5057676;28;20052;-73
2021/03/06 06:37:29;;;;;;;6.45;5.07;;;2.10;81.30;;;;;;5057835;28;20104;-73
2021/03/06 06:39:56;;;;;;;6.40;5.25;;;2.10;81.50;;;;;;5057604;28;20021;-73
2021/03/06 06:42:32;;;;;;;6.05;4.82;;;2.10;81.80;;;;;;5057552;28;20021;-73
2021/03/06 06:44:59;;;;;;;6.05;4.70;;;2.10;81.30;;;;;;5056444;28;20036;-74
2021/03/06 06:47:34;;;;;;;6.43;5.60;;;2.10;81.60;;;;;;5057392;28;20057;-73
2021/03/06 06:50:00;;;;;;;6.00;4.95;;;2.20;81.60;;;;;;5057729;28;20055;-73
2021/03/06 06:52:25;;;;;;;6.30;5.22;;;2.30;81.60;;;;;;5057460;28;20025;-73
2021/03/06 06:54:56;;;;;;;6.88;5.53;;;2.20;81.60;;;;;;5057307;28;20294;-73
2021/03/06 06:57:22;;;;;;;7.82;5.40;;;2.00;81.10;;;;;;5057517;28;20092;-74
2021/03/06 06:59:59;;;;;;;7.75;5.28;;;2.00;82.10;;;;;;5057238;28;20025;-74
2021/03/06 07:02:28;;;;;;;7.43;5.07;;;2.00;82.00;;;;;;5057292;28;20432;-74
2021/03/06 07:04:56;;;;;;;6.28;4.88;;;2.00;82.30;;;;;;5057184;28;20051;-73
2021/03/06 07:07:26;;;;;;;7.93;5.30;;;2.10;84.40;;;;;;5057068;28;20021;-74
2021/03/06 07:10:13;;;;;;;7.65;5.32;;;2.20;82.70;;;;;;5056845;28;20048;-73
2021/03/06 07:12:54;;;;;;;7.25;5.35;;;2.20;81.80;;;;;;5057149;28;20048;-74
2021/03/06 07:15:21;;;;;;;7.50;5.53;;;2.30;80.60;;;;;;5057262;28;20033;-74
2021/03/06 07:17:53;;;;;;;8.50;5.07;;;2.20;82.30;;;;;;5056965;28;20029;-74
2021/03/06 07:20:21;;;;;;;7.63;5.13;;;2.30;82.20;;;;;;5056693;28;20057;-74
2021/03/06 07:22:55;;;;;;;8.02;4.93;;;2.40;82.60;;;;;;5056916;28;20065;-74
2021/03/06 07:25:22;;;;;;;6.55;4.82;;;2.50;80.80;;;;;;5057041;28;20025;-73
2021/03/06 07:27:48;;;;;;;5.38;4.28;;;2.50;80.30;;;;;;5056715;28;20029;-74
2021/03/06 07:30:17;;;;;;;10.27;5.15;;;2.60;81.50;;;;;;5056771;28;20021;-74
2021/03/06 07:32:48;;;;;;;7.85;5.32;;;2.70;82.60;;;;;;5056679;28;20036;-73
2021/03/06 07:35:15;;;;;;;5.57;4.55;;;2.80;80.30;;;;;;5055695;28;20324;-73
2021/03/06 07:37:41;;;;;;;6.93;5.32;;;2.90;81.10;;;;;;5056702;28;20024;-73
2021/03/06 07:40:13;;;;;;;6.32;5.32;;;2.90;80.60;;;;;;5055901;28;20029;-73
2021/03/06 07:42:51;;;;;;;7.05;5.10;;;2.90;82.00;;;;;;5056550;28;20104;-73
2021/03/06 07:45:21;;;;;;;7.20;5.95;;;3.00;81.10;;;;;;5056880;28;20029;-73
2021/03/06 07:47:50;;;;;;;7.57;5.53;;;3.00;82.20;;;;;;5056663;28;20025;-74
2021/03/06 07:50:24;;;;;;;6.78;5.40;;;3.10;79.40;;;;;;5056550;28;20029;-74
2021/03/06 07:52:50;;;;;;;5.75;5.07;;;3.00;80.00;;;;;;5056553;28;20021;-74
2021/03/06 07:55:16;;;;;;;7.88;5.50;;;3.00;80.40;;;;;;5056522;28;20044;-73
2021/03/06 07:58:01;;;;;;;7.20;5.13;;;2.90;79.80;;;;;;5056517;28;20021;-73
2021/03/06 08:00:49;;;;;;;7.28;5.70;;;3.00;80.60;;;;;;5055411;28;20033;-74
2021/03/06 08:03:27;;;;;;;6.05;5.22;;;2.90;81.20;;;;;;5056338;28;20025;-73
2021/03/06 08:05:56;;;;;;;6.72;5.50;;;2.80;79.70;;;;;;5056497;28;20029;-74
2021/03/06 08:08:35;;;;;;;8.23;5.50;;;2.80;81.70;;;;;;5055230;28;20079;-74
2021/03/06 08:11:15;;;;;;;7.00;5.20;;;2.90;80.50;;;;;;5056608;28;20413;-74
2021/03/06 08:13:55;;;;;;;7.13;5.53;;;2.90;80.60;;;;;;5055214;28;20021;-74
2021/03/06 08:16:27;;;;;;;8.93;5.22;;;2.90;80.70;;;;;;5056824;28;20021;-73
2021/03/06 08:19:09;;;;;;;8.35;6.35;;;3.00;80.30;;;;;;5056287;28;20039;-73
2021/03/06 08:21:35;;;;;;;7.13;5.68;;;3.20;81.20;;;;;;5056578;28;20421;-74
2021/03/06 08:24:23;;;;;;;7.00;5.05;;;3.30;79.60;;;;;;5056190;28;20056;-74
2021/03/06 08:27:01;;;;;;;6.65;5.25;;;3.40;78.80;;;;;;5056453;28;20036;-73
2021/03/06 08:29:27;;;;;;;7.97;5.70;;;3.40;78.30;;;;;;5056158;28;20048;-73
2021/03/06 08:32:15;;;;;;;8.23;5.65;;;3.40;76.40;;;;;;5055128;28;20025;-74
2021/03/06 08:34:48;;;;;;;7.28;5.40;;;3.20;77.30;;;;;;5056162;28;20029;-73
2021/03/06 08:37:20;;;;;;;7.88;5.32;;;3.30;77.40;;;;;;5056340;28;20048;-73
2021/03/06 08:39:56;;;;;;;6.28;5.13;;;3.40;76.40;;;;;;5056420;28;20040;-73
2021/03/06 08:42:25;;;;;;;7.25;5.22;;;3.70;75.40;;;;;;5056067;28;20429;-74
2021/03/06 08:44:51;;;;;;;5.90;4.72;;;3.60;75.80;;;;;;5056178;28;20025;-74
2021/03/06 08:47:22;;;;;;;8.60;5.60;;;3.90;76.50;;;;;;5056328;28;20033;-73
2021/03/06 08:49:52;;;;;;;8.85;5.43;;;4.10;75.50;;;;;;5055982;28;20033;-73
2021/03/06 08:52:18;;;;;;;7.70;5.40;;;4.30;74.00;;;;;;5059483;28;20036;-73
2021/03/06 08:54:43;;;;;;;6.32;4.95;;;4.30;72.40;;;;;;5059834;28;20025;-73
2021/03/06 08:57:33;;;;;;;7.05;4.90;;;4.30;72.30;;;;;;5059520;28;20499;-73
2021/03/06 09:00:02;;;;;;;6.50;5.15;;;4.30;72.10;;;;;;5059581;28;20447;-73
2021/03/06 09:02:32;;;;;;;7.68;5.53;;;4.40;73.50;;;;;;5059359;28;20083;-73
2021/03/06 09:05:19;;;;;;;7.18;5.03;;;4.60;72.10;;;;;;5059453;28;20040;-73
2021/03/06 09:07:47;;;;;;;6.30;5.32;;;5.00;71.50;;;;;;5059632;28;20032;-73
2021/03/06 09:10:17;;;;;;;6.45;4.80;;;5.90;69.40;;;;;;5059344;28;20071;-74
2021/03/06 09:12:44;;;;;;;6.43;5.00;;;6.40;68.60;;;;;;5059362;28;20045;-73
2021/03/06 09:15:11;;;;;;;7.85;5.03;;;6.50;67.20;;;;;;5059422;28;20397;-74
2021/03/06 09:17:37;;;;;;;6.25;4.90;;;6.60;65.00;;;;;;5059298;28;20368;-73
2021/03/06 09:20:06;;;;;;;5.90;4.72;;;6.60;67.10;;;;;;5059142;28;20040;-74
2021/03/06 09:22:46;;;;;;;5.75;5.05;;;6.70;67.40;;;;;;5059174;28;20032;-73
2021/03/06 09:25:13;;;;;;;6.55;5.10;;;6.90;69.70;;;;;;5059066;28;20032;-74
2021/03/06 09:27:44;;;;;;;7.60;5.38;;;7.10;67.90;;;;;;5059272;28;20100;-74
2021/03/06 09:30:20;;;;;;;6.00;4.65;;;7.20;67.90;;;;;;5058993;28;20066;-74
2021/03/06 09:32:47;;;;;;;5.70;4.75;;;7.30;64.70;;;;;;5059010;28;20029;-74
2021/03/06 09:35:14;;;;;;;6.32;4.72;;;6.90;64.20;;;;;;5058857;28;20071;-74
2021/03/06 09:37:40;;;;;;;7.05;5.20;;;6.90;64.20;;;;;;5059011;28;20075;-74
2021/03/06 09:40:22;;;;;;;7.47;5.15;;;6.90;66.00;;;;;;5058753;28;20020;-74
2021/03/06 09:42:52;;;;;;;6.10;5.05;;;7.00;66.80;;;;;;5057645;28;20107;-74
2021/03/06 09:45:18;;;;;;;5.72;4.70;;;7.20;68.20;;;;;;5058619;28;20025;-74
2021/03/06 09:47:44;;;;;;;7.15;5.45;;;7.40;66.70;;;;;;5058653;28;20029;-73
2021/03/06 09:50:12;;;;;;;5.45;4.55;;;7.30;63.90;;;;;;5058831;28;20317;-74
2021/03/06 09:52:38;;;;;;;7.30;5.93;;;7.10;65.40;;;;;;5058733;28;20298;-74
2021/03/06 09:55:16;;;;;;;7.03;5.82;;;7.00;64.60;;;;;;5058436;28;20095;-74
2021/03/06 09:57:41;;;;;;;5.90;4.80;;;7.10;68.90;;;;;;5058600;28;20032;-73
2021/03/06 10:00:07;;;;;;;5.35;4.55;;;7.10;66.50;;;;;;5058432;28;20405;-74
2021/03/06 10:02:33;;;;;;;6.97;5.40;;;7.20;65.00;;;;;;5056545;28;20107;-74
2021/03/06 10:04:59;;;;;;;7.18;6.15;;;7.10;62.90;;;;;;5058302;28;20401;-74
2021/03/06 10:07:25;;;;;;;6.30;5.40;;;7.20;67.30;;;;;;5058187;28;20053;-74
2021/03/06 10:09:51;;;;;;;6.95;5.70;;;7.40;64.40;;;;;;5058234;28;20027;-74
2021/03/06 10:12:18;;;;;;;6.22;5.30;;;7.50;67.80;;;;;;5052123;28;20021;-74
2021/03/06 10:14:48;;;;;;;6.68;5.18;;;7.50;64.70;;;;;;5049800;28;20018;-74
2021/03/06 10:17:24;;;;;;;6.75;5.25;;;7.60;63.80;;;;;;5038155;28;20033;-74
2021/03/06 10:19:52;;;;;;;6.78;5.32;;;7.80;66.00;;;;;;5037916;28;20045;-74
2021/03/06 10:22:20;;;;;;;7.88;5.00;;;7.80;66.20;;;;;;5038011;28;20022;-74
2021/03/06 10:24:58;;;;;;;5.75;5.15;;;7.50;66.80;;;;;;5037980;28;20029;-73
2021/03/06 10:27:45;;;;;;;6.32;5.25;;;7.10;64.70;;;;;;5038363;28;20026;-74
2021/03/06 10:30:12;;;;;;;7.53;5.93;;;6.80;67.50;;;;;;5037953;28;20028;-73
2021/03/06 10:32:42;;;;;;;7.57;5.93;;;6.60;67.10;;;;;;5038007;28;20400;-74
2021/03/06 10:35:51;;;;;;;6.40;5.32;;;6.50;66.00;;;;;;5037971;28;20025;-74
2021/03/06 10:38:22;;;;;;;7.68;5.55;;;6.30;70.90;;;;;;5037806;28;20034;-74
2021/03/06 10:41:01;;;;;;;7.88;5.35;;;6.20;72.20;;;;;;5038043;28;20026;-73
2021/03/06 10:43:33;;;;;;;6.28;5.22;;;6.40;72.10;;;;;;5037551;28;20364;-73
2021/03/06 10:46:14;;;;;;;6.20;5.22;;;6.50;67.20;;;;;;5037980;28;20100;-74
2021/03/06 10:48:41;;;;;;;6.85;5.35;;;6.30;68.90;;;;;;5037724;28;20084;-73
2021/03/06 10:51:08;;;;;;;7.60;5.80;;;6.20;69.20;;;;;;5037773;28;20021;-73
2021/03/06 10:53:35;;;;;;;8.43;5.78;;;6.00;72.20;;;;;;5037405;28;20100;-74
2021/03/06 10:56:04;;;;;;;7.60;5.18;;;5.80;68.60;;;;;;5037430;28;20021;-74
2021/03/06 10:58:47;;;;;;;6.70;5.53;;;5.80;70.60;;;;;;5036319;28;20029;-74
2021/03/06 11:01:16;;;;;;;6.80;5.68;;;5.70;69.90;;;;;;5037583;28;20104;-74
2021/03/06 11:03:47;;;;;;;9.65;6.43;;;5.70;71.80;;;;;;5037462;28;20108;-74
2021/03/06 11:06:13;;;;;;;7.80;6.00;;;5.60;72.20;;;;;;5037283;28;20021;-73
2021/03/06 11:08:43;;;;;;;6.53;5.70;;;5.50;70.50;;;;;;5037092;28;20037;-73
2021/03/06 11:11:10;;;;;;;7.85;6.07;;;5.50;70.30;;;;;;5037273;28;20030;-73
2021/03/06 11:13:43;;;;;;;6.80;6.10;;;5.50;71.50;;;;;;5036763;28;20029;-74
2021/03/06 11:16:10;;;;;;;6.75;5.80;;;5.70;69.70;;;;;;5035693;28;20116;-74
2021/03/06 11:18:41;;;;;;;6.82;5.63;;;5.70;71.20;;;;;;5036027;28;20087;-74
2021/03/06 11:21:13;;;;;;;7.45;5.72;;;5.80;70.30;;;;;;5035873;28;20050;-73
2021/03/06 11:23:41;;;;;;;7.18;6.10;;;5.80;67.60;;;;;;5035891;28;20025;-74
2021/03/06 11:26:07;;;;;;;8.20;6.78;;;5.70;69.90;;;;;;5036999;28;20100;-73
2021/03/06 11:28:33;;;;;;;6.35;5.72;;;5.60;70.60;;;;;;5036837;28;20351;-73
2021/03/06 11:31:04;;;;;;;7.97;5.82;;;5.70;70.80;;;;;;5036859;28;20028;-73
2021/03/06 11:33:30;;;;;;;9.00;5.15;;;5.90;71.10;;;;;;5036928;28;20025;-73
2021/03/06 11:35:56;;;;;;;7.50;5.50;;;6.00;69.60;;;;;;5036852;28;20071;-74
2021/03/06 11:38:23;;;;;;;6.60;5.68;;;6.00;68.30;;;;;;5035713;28;20029;-73
2021/03/06 11:40:51;;;;;;;7.10;6.13;;;6.00;69.60;;;;;;5036907;28;20032;-73
2021/03/06 11:43:18;;;;;;;7.55;5.85;;;6.10;69.30;;;;;;5036594;28;20025;-73
2021/03/06 11:45:45;;;;;;;8.10;5.78;;;6.20;67.20;;;;;;5035828;28;20452;-73
2021/03/06 11:48:11;;;;;;;6.70;5.85;;;6.30;67.80;;;;;;5036653;28;20362;-73
2021/03/06 11:50:40;;;;;;;6.80;5.78;;;6.30;67.10;;;;;;5036954;28;20151;-73
2021/03/06 11:53:05;;;;;;;6.15;5.53;;;6.40;67.40;;;;;;5036547;28;20021;-74
2021/03/06 11:55:32;;;;;;;7.05;5.90;;;6.70;66.40;;;;;;5036597;28;20025;-73
2021/03/06 11:57:58;;;;;;;8.82;6.15;;;6.80;67.70;;;;;;5036565;28;20038;-74
2021/03/06 12:00:26;;;;;;;7.45;6.05;;;7.20;66.60;;;;;;5036576;28;20040;-74
2021/03/06 12:02:52;;;;;;;6.55;5.78;;;7.60;63.00;;;;;;5036471;28;20370;-74
2021/03/06 12:05:18;;;;;;;7.22;5.65;;;8.00;62.40;;;;;;5036504;28;20053;-73
2021/03/06 12:07:45;;;;;;;5.85;5.07;;;7.90;61.40;;;;;;5036569;28;20029;-73
2021/03/06 12:10:16;;;;;;;9.02;5.80;;;7.70;60.90;;;;;;5036476;28;20049;-74
2021/03/06 12:12:43;;;;;;;8.70;6.05;;;7.40;63.40;;;;;;5035337;28;20032;-74
2021/03/06 12:15:10;;;;;;;9.88;5.53;;;7.60;64.30;;;;;;5036597;28;20022;-73
2021/03/06 12:17:36;;;;;;;8.38;5.85;;;7.70;64.10;;;;;;5036513;28;20414;-74
2021/03/06 12:20:03;;;;;;;6.50;5.03;;;7.80;65.00;;;;;;5036203;28;20071;-74
2021/03/06 12:22:29;;;;;;;11.82;5.53;;;7.90;63.10;;;;;;5036190;28;20108;-74
2021/03/06 12:24:55;;;;;;;6.22;5.63;;;8.10;66.80;;;;;;5036363;28;20091;-74
2021/03/06 12:27:21;;;;;;;7.50;5.60;;;8.20;62.30;;;;;;5040098;28;20321;-74
2021/03/06 12:29:47;;;;;;;7.15;5.25;;;8.10;62.00;;;;;;5040350;28;20310;-74
2021/03/06 12:32:12;;;;;;;7.78;5.70;;;8.00;64.70;;;;;;5040070;28;20156;-74
2021/03/06 12:34:38;;;;;;;6.38;5.50;;;7.90;63.30;;;;;;5040021;28;20417;-74
2021/03/06 12:37:04;;;;;;;7.68;5.85;;;7.70;63.20;;;;;;5040297;28;20029;-74
2021/03/06 12:39:30;;;;;;;7.72;5.47;;;7.80;64.00;;;;;;5040030;28;20049;-74
2021/03/06 12:41:56;;;;;;;7.85;5.75;;;7.70;62.40;;;;;;5039939;28;20131;-73
2021/03/06 12:44:22;;;;;;;6.88;5.95;;;7.60;63.20;;;;;;5039734;28;20025;-73
2021/03/06 12:46:48;;;;;;;7.88;6.13;;;7.60;62.60;;;;;;5040056;28;20037;-74
2021/03/06 12:49:18;;;;;;;8.43;5.85;;;7.50;66.70;;;;;;5038688;28;20026;-74
2021/03/06 12:51:43;;;;;;;7.20;5.97;;;7.50;64.20;;;;;;5039934;28;20068;-73
2021/03/06 12:54:11;;;;;;;5.82;5.25;;;7.60;62.60;;;;;;5039663;28;20021;-74
2021/03/06 12:56:37;;;;;;;6.22;5.20;;;7.70;64.10;;;;;;5039772;28;20022;-74
2021/03/06 12:59:03;;;;;;;8.00;5.97;;;7.90;61.10;;;;;;5039612;28;20485;-74
2021/03/06 13:01:30;;;;;;;7.15;6.45;;;7.70;63.50;;;;;;5039551;28;20108;-74
2021/03/06 13:03:56;;;;;;;6.13;5.50;;;7.70;66.40;;;;;;5039450;28;20052;-74
2021/03/06 13:06:22;;;;;;;6.93;6.20;;;7.60;63.70;;;;;;5039505;28;20325;-74
2021/03/06 13:08:50;;;;;;;8.07;6.10;;;7.60;65.80;;;;;;5039336;28;20361;-74